createdAt,value
2023-03-18T00:00:52.421Z,6.20
2023-03-18T00:10:54.693Z,5.17
2023-03-18T00:21:01.126Z,6.50
2023-03-18T00:31:08.949Z,6.30
2023-03-18T00:41:12.725Z,6.30
2023-03-18T00:51:18.705Z,4.53
2023-03-18T01:01:24.704Z,4.93
2023-03-18T01:11:32.145Z,5.50
2023-03-18T01:21:34.689Z,5.03
2023-03-18T01:31:38.019Z,5.43
2023-03-18T01:41:46.513Z,4.77
2023-03-18T01:52:23.278Z,3.67
2023-03-18T02:02:26.434Z,3.77
2023-03-18T02:12:34.670Z,4.93
2023-03-18T02:22:52.771Z,3.03
2023-03-18T02:33:00.587Z,3.27
2023-03-18T02:43:32.745Z,2.70
2023-03-18T02:53:44.503Z,3.87
2023-03-18T03:03:49.420Z,3.43
2023-03-18T03:13:54.362Z,2.40
2023-03-18T03:23:59.749Z,3.37
2023-03-18T03:34:04.900Z,3.13
2023-03-18T03:44:07.571Z,3.13
2023-03-18T03:54:14.244Z,2.90
2023-03-18T04:04:19.406Z,4.17
2023-03-18T04:14:24.202Z,2.73
2023-03-18T04:24:30.675Z,3.63
2023-03-18T04:34:34.351Z,2.87
2023-03-18T04:44:41.422Z,3.30
2023-03-18T04:54:43.705Z,2.90
2023-03-18T05:04:54.162Z,3.43
2023-03-18T05:15:01.051Z,3.13
2023-03-18T05:25:07.580Z,3.57
2023-03-18T05:35:11.617Z,3.40
2023-03-18T05:45:25.641Z,3.53
2023-03-18T05:55:31.123Z,3.60
2023-03-18T06:05:34.161Z,3.30
2023-03-18T06:15:39.026Z,3.10
2023-03-18T06:25:42.242Z,4.13
2023-03-18T06:35:48.425Z,3.10
2023-03-18T06:45:50.968Z,3.20
2023-03-18T06:55:59.457Z,2.27
2023-03-18T07:06:11.683Z,3.30
2023-03-18T07:16:15.701Z,3.00
2023-03-18T07:26:20.497Z,2.10
2023-03-18T07:36:28.301Z,3.00
2023-03-18T07:46:35.256Z,2.93
2023-03-18T07:56:37.382Z,3.33
2023-03-18T08:06:49.849Z,3.23
2023-03-18T08:16:54.432Z,3.03
2023-03-18T08:27:02.252Z,2.63
2023-03-18T08:37:08.508Z,3.20
2023-03-18T08:47:10.725Z,3.33
2023-03-18T08:57:18.530Z,2.47
2023-03-18T09:07:20.658Z,3.30
2023-03-18T09:17:35.875Z,3.30
2023-03-18T09:27:47.887Z,2.80
2023-03-18T09:37:54.202Z,2.77
2023-03-18T09:48:24.785Z,3.13
2023-03-18T09:58:54.773Z,2.77
2023-03-18T10:09:04.152Z,2.80
2023-03-18T10:19:06.339Z,3.83
2023-03-18T10:29:39.282Z,3.13
2023-03-18T10:39:41.845Z,3.38
2023-03-18T10:49:51.303Z,2.70
2023-03-18T10:59:56.704Z,2.90
2023-03-18T11:10:18.267Z,2.95
2023-03-18T11:20:27.198Z,3.28
2023-03-18T11:30:34.913Z,2.85
2023-03-18T11:40:42.428Z,2.08
2023-03-18T11:51:23.719Z,3.00
2023-03-18T12:01:53.232Z,2.72
2023-03-18T12:12:39.715Z,3.60
2023-03-18T12:23:02.274Z,2.63
2023-03-18T12:33:22.940Z,3.10
2023-03-18T12:43:34.157Z,2.58
2023-03-18T12:53:36.998Z,3.28
2023-03-18T13:03:41.167Z,3.20
2023-03-18T13:13:54.965Z,2.75
2023-03-18T13:24:22.082Z,3.72
2023-03-18T13:34:32.083Z,2.88
2023-03-18T13:44:45.415Z,2.72
2023-03-18T13:54:50.328Z,3.30
2023-03-18T14:04:59.754Z,3.15
2023-03-18T14:15:14.250Z,3.38
2023-03-18T14:25:22.756Z,3.00
2023-03-18T14:35:30.542Z,3.63
2023-03-18T14:45:37.796Z,3.60
2023-03-18T14:55:42.118Z,3.47
2023-03-18T15:05:46.679Z,4.20
2023-03-18T15:15:50.625Z,3.60
2023-03-18T15:26:00.584Z,3.95
2023-03-18T15:36:19.388Z,4.07
2023-03-18T15:46:38.157Z,4.00
2023-03-18T15:56:49.458Z,4.72
2023-03-18T16:06:54.952Z,4.30
2023-03-18T16:16:57.091Z,4.82
2023-03-18T16:27:02.174Z,4.90
2023-03-18T16:37:14.162Z,4.28
2023-03-18T16:47:28.574Z,4.47
2023-03-18T16:57:40.372Z,4.50
2023-03-18T17:07:46.088Z,4.75
2023-03-18T17:17:53.463Z,5.30
2023-03-18T17:28:03.363Z,5.63
2023-03-18T17:38:10.176Z,6.40
2023-03-18T17:58:39.283Z,6.20
2023-03-18T18:08:44.531Z,7.13
2023-03-18T18:18:49.506Z,5.90
2023-03-18T18:28:53.619Z,9.13
2023-03-18T18:38:58.895Z,8.13
2023-03-18T18:49:01.885Z,9.02
2023-03-18T18:59:26.846Z,9.45
2023-03-18T19:09:34.665Z,8.40
2023-03-18T19:19:46.016Z,9.40
2023-03-18T19:29:53.709Z,9.38
2023-03-18T19:39:57.057Z,10.50
2023-03-18T19:50:01.810Z,10.75
2023-03-18T20:00:16.177Z,9.45
2023-03-18T20:10:19.959Z,9.95
2023-03-18T20:20:28.549Z,10.70
2023-03-18T20:30:37.924Z,11.40
2023-03-18T20:40:42.738Z,9.93
2023-03-18T20:50:48.004Z,10.23
2023-03-18T21:00:55.567Z,9.23
2023-03-18T21:11:01.668Z,9.93
2023-03-18T21:21:08.947Z,10.65
2023-03-18T21:31:25.160Z,10.52
2023-03-18T21:41:30.496Z,11.18
2023-03-18T21:51:39.438Z,10.60
2023-03-18T22:01:42.315Z,12.23
2023-03-18T22:11:48.074Z,9.37
2023-03-18T22:21:53.896Z,11.13
2023-03-18T22:32:02.987Z,10.23
2023-03-18T22:42:15.190Z,11.07
2023-03-18T22:52:29.685Z,10.47
2023-03-18T23:02:37.222Z,11.47
2023-03-18T23:12:44.810Z,10.37
2023-03-18T23:22:47.249Z,11.87
2023-03-18T23:32:53.248Z,11.60
2023-03-18T23:43:03.119Z,11.50
2023-03-18T23:53:07.940Z,12.67
